Siirt, Turkey
Current Conditions -  °F | °C
As of 1:50 AM on Monday 22 Dec 2014 (Local Time) from LTCJ Reporting Station
Moderate Fog Moderate Fog  
Wind Chill: 37°   Ceiling: 100
Heat Index: 37°   Visibility: 0.25mi
Dew Point: 37°   Wind: 3mph
Humidity: 100%   Direction: 50°NE
Pressure: 30.06"   Gusts: NA
Location:  37.94°N, 41.95°E
Report Text: LTCJ 212250Z 05003KT 0400 R02/0500U R20/0500U FG VV001 03/03 Q1018
Loading
Personal Weather Stations






























Interactive Weather Map New forecast layout! Learn more

10-Day Weather Forecast

Advertisements
Track Severe Weather on mobile